sensor_id;sensor_type;location;lat;lon;timestamp;temperature;humidity
64549;DHT22;49838;51.798;10.954;2022-12-07T00:01:51;8.40;54.00
64549;DHT22;49838;51.798;10.954;2022-12-07T00:04:20;8.40;54.00
64549;DHT22;49838;51.798;10.954;2022-12-07T00:06:50;8.40;54.00
64549;DHT22;49838;51.798;10.954;2022-12-07T00:09:18;8.50;54.00
64549;DHT22;49838;51.798;10.954;2022-12-07T00:11:48;8.50;54.00
64549;DHT22;49838;51.798;10.954;2022-12-07T00:14:16;8.50;54.00
64549;DHT22;49838;51.798;10.954;2022-12-07T00:16:44;8.50;54.00
64549;DHT22;49838;51.798;10.954;2022-12-07T00:19:12;8.60;54.10
64549;DHT22;49838;51.798;10.954;2022-12-07T00:21:42;8.60;54.10
64549;DHT22;49838;51.798;10.954;2022-12-07T00:24:09;8.60;54.10
64549;DHT22;49838;51.798;10.954;2022-12-07T00:26:37;8.60;54.10
64549;DHT22;49838;51.798;10.954;2022-12-07T00:29:07;8.70;54.20
64549;DHT22;49838;51.798;10.954;2022-12-07T00:31:37;8.70;54.20
64549;DHT22;49838;51.798;10.954;2022-12-07T00:34:05;8.70;54.20
64549;DHT22;49838;51.798;10.954;2022-12-07T00:36:33;8.80;54.30
64549;DHT22;49838;51.798;10.954;2022-12-07T00:39:02;8.80;54.20
64549;DHT22;49838;51.798;10.954;2022-12-07T00:41:30;8.90;54.30
64549;DHT22;49838;51.798;10.954;2022-12-07T00:43:57;8.90;54.20
64549;DHT22;49838;51.798;10.954;2022-12-07T00:46:25;9.00;54.30
64549;DHT22;49838;51.798;10.954;2022-12-07T00:48:53;9.00;54.20
64549;DHT22;49838;51.798;10.954;2022-12-07T00:51:21;9.00;54.10
64549;DHT22;49838;51.798;10.954;2022-12-07T00:53:49;9.00;54.10
64549;DHT22;49838;51.798;10.954;2022-12-07T00:56:18;9.00;54.20
64549;DHT22;49838;51.798;10.954;2022-12-07T00:58:51;9.00;54.20
64549;DHT22;49838;51.798;10.954;2022-12-07T01:01:19;9.00;54.20
64549;DHT22;49838;51.798;10.954;2022-12-07T01:03:47;9.00;54.20
64549;DHT22;49838;51.798;10.954;2022-12-07T01:06:14;9.00;54.30
64549;DHT22;49838;51.798;10.954;2022-12-07T01:08:43;9.00;54.40
64549;DHT22;49838;51.798;10.954;2022-12-07T01:11:12;9.00;54.30
64549;DHT22;49838;51.798;10.954;2022-12-07T01:13:42;9.00;54.30
64549;DHT22;49838;51.798;10.954;2022-12-07T01:16:10;9.00;54.20
64549;DHT22;49838;51.798;10.954;2022-12-07T01:18:39;9.00;54.10
64549;DHT22;49838;51.798;10.954;2022-12-07T01:21:07;9.00;54.30
64549;DHT22;49838;51.798;10.954;2022-12-07T01:23:37;9.00;54.30
64549;DHT22;49838;51.798;10.954;2022-12-07T01:26:06;9.00;54.30
64549;DHT22;49838;51.798;10.954;2022-12-07T01:28:37;9.00;54.40
64549;DHT22;49838;51.798;10.954;2022-12-07T01:31:07;8.90;54.20
64549;DHT22;49838;51.798;10.954;2022-12-07T01:33:37;9.00;54.40
64549;DHT22;49838;51.798;10.954;2022-12-07T01:36:06;9.00;54.40
64549;DHT22;49838;51.798;10.954;2022-12-07T01:38:39;9.10;54.40
64549;DHT22;49838;51.798;10.954;2022-12-07T01:41:07;9.10;54.40
64549;DHT22;49838;51.798;10.954;2022-12-07T01:43:34;9.10;54.70
64549;DHT22;49838;51.798;10.954;2022-12-07T01:46:03;9.10;54.70
64549;DHT22;49838;51.798;10.954;2022-12-07T01:48:32;9.10;54.60
64549;DHT22;49838;51.798;10.954;2022-12-07T01:51:04;9.20;54.60
64549;DHT22;49838;51.798;10.954;2022-12-07T01:53:36;9.20;54.70
64549;DHT22;49838;51.798;10.954;2022-12-07T01:56:07;9.20;54.70
64549;DHT22;49838;51.798;10.954;2022-12-07T01:58:37;9.20;54.70
64549;DHT22;49838;51.798;10.954;2022-12-07T02:01:04;9.20;54.70
64549;DHT22;49838;51.798;10.954;2022-12-07T02:03:34;9.20;54.80
64549;DHT22;49838;51.798;10.954;2022-12-07T02:06:04;9.30;54.90
64549;DHT22;49838;51.798;10.954;2022-12-07T02:08:33;9.30;54.80
64549;DHT22;49838;51.798;10.954;2022-12-07T02:11:01;9.30;54.80
64549;DHT22;49838;51.798;10.954;2022-12-07T02:13:30;9.40;54.80
64549;DHT22;49838;51.798;10.954;2022-12-07T02:16:03;9.40;54.70
64549;DHT22;49838;51.798;10.954;2022-12-07T02:18:55;9.40;54.80
64549;DHT22;49838;51.798;10.954;2022-12-07T02:21:33;9.40;54.70
64549;DHT22;49838;51.798;10.954;2022-12-07T02:27:17;9.50;54.80
64549;DHT22;49838;51.798;10.954;2022-12-07T02:30:03;9.50;54.90
64549;DHT22;49838;51.798;10.954;2022-12-07T02:32:35;9.50;54.90
64549;DHT22;49838;51.798;10.954;2022-12-07T02:35:09;9.60;55.00
64549;DHT22;49838;51.798;10.954;2022-12-07T02:37:43;9.60;55.00
64549;DHT22;49838;51.798;10.954;2022-12-07T02:40:21;9.70;55.00
64549;DHT22;49838;51.798;10.954;2022-12-07T02:42:55;9.70;55.60
64549;DHT22;49838;51.798;10.954;2022-12-07T02:45:30;9.70;55.00
64549;DHT22;49838;51.798;10.954;2022-12-07T02:47:59;9.80;54.90
64549;DHT22;49838;51.798;10.954;2022-12-07T02:50:27;9.80;54.90
64549;DHT22;49838;51.798;10.954;2022-12-07T02:52:55;9.80;54.80
64549;DHT22;49838;51.798;10.954;2022-12-07T02:55:23;9.80;54.80
64549;DHT22;49838;51.798;10.954;2022-12-07T03:01:02;9.90;54.90
64549;DHT22;49838;51.798;10.954;2022-12-07T03:03:33;9.80;54.90
64549;DHT22;49838;51.798;10.954;2022-12-07T03:06:06;9.90;55.10
64549;DHT22;49838;51.798;10.954;2022-12-07T03:08:44;9.90;55.00
64549;DHT22;49838;51.798;10.954;2022-12-07T03:11:20;9.90;55.00
64549;DHT22;49838;51.798;10.954;2022-12-07T03:13:55;10.00;54.20
64549;DHT22;49838;51.798;10.954;2022-12-07T03:16:28;10.00;54.20
64549;DHT22;49838;51.798;10.954;2022-12-07T03:19:02;10.10;54.20
64549;DHT22;49838;51.798;10.954;2022-12-07T03:21:33;10.10;54.20
64549;DHT22;49838;51.798;10.954;2022-12-07T03:24:06;10.10;54.20
64549;DHT22;49838;51.798;10.954;2022-12-07T03:26:38;10.10;54.30
64549;DHT22;49838;51.798;10.954;2022-12-07T03:29:12;10.10;54.20
64549;DHT22;49838;51.798;10.954;2022-12-07T03:31:46;10.20;54.40
64549;DHT22;49838;51.798;10.954;2022-12-07T03:34:19;10.20;54.20
64549;DHT22;49838;51.798;10.954;2022-12-07T03:36:52;10.20;54.20
64549;DHT22;49838;51.798;10.954;2022-12-07T03:39:27;10.20;54.30
64549;DHT22;49838;51.798;10.954;2022-12-07T03:42:00;10.20;55.00
64549;DHT22;49838;51.798;10.954;2022-12-07T03:44:32;10.20;54.20
64549;DHT22;49838;51.798;10.954;2022-12-07T03:47:03;10.20;54.10
64549;DHT22;49838;51.798;10.954;2022-12-07T03:49:37;10.20;54.30
64549;DHT22;49838;51.798;10.954;2022-12-07T03:52:08;10.20;54.30
64549;DHT22;49838;51.798;10.954;2022-12-07T03:54:45;10.20;54.30
64549;DHT22;49838;51.798;10.954;2022-12-07T03:57:18;10.20;54.30
64549;DHT22;49838;51.798;10.954;2022-12-07T03:59:48;10.20;54.30
64549;DHT22;49838;51.798;10.954;2022-12-07T04:02:17;10.20;54.40
64549;DHT22;49838;51.798;10.954;2022-12-07T04:04:45;10.20;54.20
64549;DHT22;49838;51.798;10.954;2022-12-07T04:07:12;10.20;54.30
64549;DHT22;49838;51.798;10.954;2022-12-07T04:09:40;10.20;54.30
64549;DHT22;49838;51.798;10.954;2022-12-07T04:12:07;10.30;54.30
64549;DHT22;49838;51.798;10.954;2022-12-07T04:14:34;10.30;54.30
64549;DHT22;49838;51.798;10.954;2022-12-07T04:17:02;10.30;54.10
64549;DHT22;49838;51.798;10.954;2022-12-07T04:19:32;10.30;54.00
64549;DHT22;49838;51.798;10.954;2022-12-07T04:22:01;10.30;54.00
64549;DHT22;49838;51.798;10.954;2022-12-07T04:24:30;10.30;54.00
64549;DHT22;49838;51.798;10.954;2022-12-07T04:26:57;10.30;54.10
64549;DHT22;49838;51.798;10.954;2022-12-07T04:29:25;10.30;54.10
64549;DHT22;49838;51.798;10.954;2022-12-07T04:31:52;10.30;54.00
64549;DHT22;49838;51.798;10.954;2022-12-07T04:34:20;10.30;54.00
64549;DHT22;49838;51.798;10.954;2022-12-07T04:36:49;10.20;54.00
64549;DHT22;49838;51.798;10.954;2022-12-07T04:39:18;10.20;54.10
64549;DHT22;49838;51.798;10.954;2022-12-07T04:41:47;10.20;54.00
64549;DHT22;49838;51.798;10.954;2022-12-07T04:44:14;10.20;54.00
64549;DHT22;49838;51.798;10.954;2022-12-07T04:46:42;10.20;53.90
64549;DHT22;49838;51.798;10.954;2022-12-07T04:49:10;10.10;53.80
64549;DHT22;49838;51.798;10.954;2022-12-07T04:51:39;10.10;53.70
64549;DHT22;49838;51.798;10.954;2022-12-07T04:54:08;10.00;53.70
64549;DHT22;49838;51.798;10.954;2022-12-07T04:56:35;10.00;53.60
64549;DHT22;49838;51.798;10.954;2022-12-07T04:59:03;9.90;54.50
64549;DHT22;49838;51.798;10.954;2022-12-07T05:01:31;9.90;54.60
64549;DHT22;49838;51.798;10.954;2022-12-07T05:03:58;9.80;54.60
64549;DHT22;49838;51.798;10.954;2022-12-07T05:06:26;9.80;54.60
64549;DHT22;49838;51.798;10.954;2022-12-07T05:08:54;9.80;54.70
64549;DHT22;49838;51.798;10.954;2022-12-07T05:11:22;9.80;54.60
64549;DHT22;49838;51.798;10.954;2022-12-07T05:14:06;9.80;54.60
64549;DHT22;49838;51.798;10.954;2022-12-07T05:16:36;9.80;54.50
64549;DHT22;49838;51.798;10.954;2022-12-07T05:19:04;9.80;54.60
64549;DHT22;49838;51.798;10.954;2022-12-07T05:21:32;9.80;54.60
64549;DHT22;49838;51.798;10.954;2022-12-07T05:23:59;9.80;54.70
64549;DHT22;49838;51.798;10.954;2022-12-07T05:26:29;9.80;54.70
64549;DHT22;49838;51.798;10.954;2022-12-07T05:28:56;9.90;54.50
64549;DHT22;49838;51.798;10.954;2022-12-07T05:31:25;9.90;54.60
64549;DHT22;49838;51.798;10.954;2022-12-07T05:33:53;9.90;54.60
64549;DHT22;49838;51.798;10.954;2022-12-07T05:36:20;9.90;54.60
64549;DHT22;49838;51.798;10.954;2022-12-07T05:38:48;9.90;54.70
64549;DHT22;49838;51.798;10.954;2022-12-07T05:41:17;10.00;54.00
64549;DHT22;49838;51.798;10.954;2022-12-07T05:44:04;10.00;53.90
64549;DHT22;49838;51.798;10.954;2022-12-07T05:46:32;10.10;53.80
64549;DHT22;49838;51.798;10.954;2022-12-07T05:49:00;10.00;53.70
64549;DHT22;49838;51.798;10.954;2022-12-07T05:51:28;10.00;53.70
64549;DHT22;49838;51.798;10.954;2022-12-07T05:53:56;10.00;53.70
64549;DHT22;49838;51.798;10.954;2022-12-07T05:56:23;10.00;53.80
64549;DHT22;49838;51.798;10.954;2022-12-07T05:58:50;10.00;53.90
64549;DHT22;49838;51.798;10.954;2022-12-07T06:01:37;10.00;54.00
64549;DHT22;49838;51.798;10.954;2022-12-07T06:04:04;10.00;54.00
64549;DHT22;49838;51.798;10.954;2022-12-07T06:06:32;10.00;53.80
64549;DHT22;49838;51.798;10.954;2022-12-07T06:08:59;10.00;53.80
64549;DHT22;49838;51.798;10.954;2022-12-07T06:11:26;10.00;53.80
64549;DHT22;49838;51.798;10.954;2022-12-07T06:14:11;10.00;53.70
64549;DHT22;49838;51.798;10.954;2022-12-07T06:16:40;10.00;53.80
64549;DHT22;49838;51.798;10.954;2022-12-07T06:19:07;10.00;53.80
64549;DHT22;49838;51.798;10.954;2022-12-07T06:21:35;10.00;53.80
64549;DHT22;49838;51.798;10.954;2022-12-07T06:24:02;10.00;53.80
64549;DHT22;49838;51.798;10.954;2022-12-07T06:26:30;10.00;54.40
64549;DHT22;49838;51.798;10.954;2022-12-07T06:28:57;10.00;53.80
64549;DHT22;49838;51.798;10.954;2022-12-07T06:31:25;10.00;53.90
64549;DHT22;49838;51.798;10.954;2022-12-07T06:33:57;10.10;54.00
64549;DHT22;49838;51.798;10.954;2022-12-07T06:36:25;10.10;54.00
64549;DHT22;49838;51.798;10.954;2022-12-07T06:38:53;10.10;54.00
64549;DHT22;49838;51.798;10.954;2022-12-07T06:41:20;10.10;54.00
64549;DHT22;49838;51.798;10.954;2022-12-07T06:43:48;10.20;54.10
64549;DHT22;49838;51.798;10.954;2022-12-07T06:46:16;10.20;54.70
64549;DHT22;49838;51.798;10.954;2022-12-07T06:48:43;10.20;54.10
64549;DHT22;49838;51.798;10.954;2022-12-07T06:51:12;10.30;54.10
64549;DHT22;49838;51.798;10.954;2022-12-07T06:53:40;10.30;54.10
64549;DHT22;49838;51.798;10.954;2022-12-07T06:56:07;10.30;54.10
64549;DHT22;49838;51.798;10.954;2022-12-07T06:58:35;10.30;54.10
64549;DHT22;49838;51.798;10.954;2022-12-07T07:01:02;10.40;54.00
64549;DHT22;49838;51.798;10.954;2022-12-07T07:03:29;10.40;53.90
64549;DHT22;49838;51.798;10.954;2022-12-07T07:05:57;10.40;53.80
64549;DHT22;49838;51.798;10.954;2022-12-07T07:08:25;10.40;53.80
64549;DHT22;49838;51.798;10.954;2022-12-07T07:10:53;10.30;53.70
64549;DHT22;49838;51.798;10.954;2022-12-07T07:13:20;10.30;53.70
64549;DHT22;49838;51.798;10.954;2022-12-07T07:15:47;10.30;53.80
64549;DHT22;49838;51.798;10.954;2022-12-07T07:18:15;10.30;53.80
64549;DHT22;49838;51.798;10.954;2022-12-07T07:20:42;10.30;53.90
64549;DHT22;49838;51.798;10.954;2022-12-07T07:23:09;10.30;53.90
64549;DHT22;49838;51.798;10.954;2022-12-07T07:25:38;10.40;54.00
64549;DHT22;49838;51.798;10.954;2022-12-07T07:28:05;10.40;54.00
64549;DHT22;49838;51.798;10.954;2022-12-07T07:30:33;10.40;54.00
64549;DHT22;49838;51.798;10.954;2022-12-07T07:33:00;10.40;54.00
64549;DHT22;49838;51.798;10.954;2022-12-07T07:35:30;10.30;53.80
64549;DHT22;49838;51.798;10.954;2022-12-07T07:37:58;10.30;53.80
64549;DHT22;49838;51.798;10.954;2022-12-07T07:40:25;10.30;53.80
64549;DHT22;49838;51.798;10.954;2022-12-07T07:42:55;10.30;53.90
64549;DHT22;49838;51.798;10.954;2022-12-07T07:45:24;10.20;53.80
64549;DHT22;49838;51.798;10.954;2022-12-07T07:47:52;10.20;53.90
64549;DHT22;49838;51.798;10.954;2022-12-07T07:50:19;10.30;54.00
64549;DHT22;49838;51.798;10.954;2022-12-07T07:52:47;10.30;54.00
64549;DHT22;49838;51.798;10.954;2022-12-07T07:55:15;10.30;54.00
64549;DHT22;49838;51.798;10.954;2022-12-07T07:57:43;10.30;53.90
64549;DHT22;49838;51.798;10.954;2022-12-07T08:00:12;10.30;53.90
64549;DHT22;49838;51.798;10.954;2022-12-07T08:02:41;10.40;54.00
64549;DHT22;49838;51.798;10.954;2022-12-07T08:05:09;10.40;53.90
64549;DHT22;49838;51.798;10.954;2022-12-07T08:07:37;10.40;54.00
64549;DHT22;49838;51.798;10.954;2022-12-07T08:10:06;10.40;54.00
64549;DHT22;49838;51.798;10.954;2022-12-07T08:12:35;10.40;53.80
64549;DHT22;49838;51.798;10.954;2022-12-07T08:15:03;10.40;53.90
64549;DHT22;49838;51.798;10.954;2022-12-07T08:17:33;10.50;53.90
64549;DHT22;49838;51.798;10.954;2022-12-07T08:20:00;10.50;54.00
64549;DHT22;49838;51.798;10.954;2022-12-07T08:22:27;10.50;54.00
64549;DHT22;49838;51.798;10.954;2022-12-07T08:24:55;10.60;54.10
64549;DHT22;49838;51.798;10.954;2022-12-07T08:27:22;10.60;54.10
64549;DHT22;49838;51.798;10.954;2022-12-07T08:29:52;10.60;54.00
64549;DHT22;49838;51.798;10.954;2022-12-07T08:32:20;10.60;54.10
64549;DHT22;49838;51.798;10.954;2022-12-07T08:34:48;10.60;54.10
64549;DHT22;49838;51.798;10.954;2022-12-07T08:37:16;10.70;54.20
64549;DHT22;49838;51.798;10.954;2022-12-07T08:39:43;10.70;54.10
64549;DHT22;49838;51.798;10.954;2022-12-07T08:42:10;10.70;54.00
64549;DHT22;49838;51.798;10.954;2022-12-07T08:44:37;10.70;53.90
64549;DHT22;49838;51.798;10.954;2022-12-07T08:47:06;10.70;53.90
64549;DHT22;49838;51.798;10.954;2022-12-07T08:49:38;10.80;53.90
64549;DHT22;49838;51.798;10.954;2022-12-07T08:52:09;10.80;54.60
64549;DHT22;49838;51.798;10.954;2022-12-07T08:54:38;10.80;54.00
64549;DHT22;49838;51.798;10.954;2022-12-07T08:57:06;10.80;54.00
64549;DHT22;49838;51.798;10.954;2022-12-07T08:59:36;10.80;54.10
64549;DHT22;49838;51.798;10.954;2022-12-07T09:02:05;10.90;54.10
64549;DHT22;49838;51.798;10.954;2022-12-07T09:04:33;10.90;54.70
64549;DHT22;49838;51.798;10.954;2022-12-07T09:07:01;11.00;54.10
64549;DHT22;49838;51.798;10.954;2022-12-07T09:09:31;11.00;54.10
64549;DHT22;49838;51.798;10.954;2022-12-07T09:11:58;11.10;54.10
64549;DHT22;49838;51.798;10.954;2022-12-07T09:14:26;11.20;54.20
64549;DHT22;49838;51.798;10.954;2022-12-07T09:16:53;11.20;54.10
64549;DHT22;49838;51.798;10.954;2022-12-07T09:19:20;11.30;54.10
64549;DHT22;49838;51.798;10.954;2022-12-07T09:21:48;11.30;54.00
64549;DHT22;49838;51.798;10.954;2022-12-07T09:24:15;11.40;53.80
64549;DHT22;49838;51.798;10.954;2022-12-07T09:26:44;11.40;53.60
64549;DHT22;49838;51.798;10.954;2022-12-07T09:29:11;11.50;53.70
64549;DHT22;49838;51.798;10.954;2022-12-07T09:31:38;11.40;53.80
64549;DHT22;49838;51.798;10.954;2022-12-07T09:34:06;11.40;53.50
64549;DHT22;49838;51.798;10.954;2022-12-07T09:36:33;11.40;53.40
64549;DHT22;49838;51.798;10.954;2022-12-07T09:39:01;11.40;53.40
64549;DHT22;49838;51.798;10.954;2022-12-07T09:41:30;11.50;53.60
64549;DHT22;49838;51.798;10.954;2022-12-07T09:44:03;11.50;53.60
64549;DHT22;49838;51.798;10.954;2022-12-07T09:46:33;11.60;53.90
64549;DHT22;49838;51.798;10.954;2022-12-07T09:49:03;11.60;54.00
64549;DHT22;49838;51.798;10.954;2022-12-07T09:51:31;11.60;53.80
64549;DHT22;49838;51.798;10.954;2022-12-07T09:53:59;11.50;53.60
64549;DHT22;49838;51.798;10.954;2022-12-07T09:56:28;11.50;53.60
64549;DHT22;49838;51.798;10.954;2022-12-07T09:58:58;11.50;53.60
64549;DHT22;49838;51.798;10.954;2022-12-07T10:01:29;11.50;53.60
64549;DHT22;49838;51.798;10.954;2022-12-07T10:04:00;11.60;53.80
64549;DHT22;49838;51.798;10.954;2022-12-07T10:06:33;11.60;53.80
64549;DHT22;49838;51.798;10.954;2022-12-07T10:09:01;11.70;54.00
64549;DHT22;49838;51.798;10.954;2022-12-07T10:11:29;11.80;54.00
64549;DHT22;49838;51.798;10.954;2022-12-07T10:14:09;11.90;54.10
64549;DHT22;49838;51.798;10.954;2022-12-07T10:16:40;12.00;54.10
64549;DHT22;49838;51.798;10.954;2022-12-07T10:19:18;12.20;54.10
64549;DHT22;49838;51.798;10.954;2022-12-07T10:22:00;12.30;54.30
64549;DHT22;49838;51.798;10.954;2022-12-07T10:24:29;12.60;54.70
64549;DHT22;49838;51.798;10.954;2022-12-07T10:26:58;13.00;55.30
64549;DHT22;49838;51.798;10.954;2022-12-07T10:29:28;13.40;55.40
64549;DHT22;49838;51.798;10.954;2022-12-07T10:31:59;13.60;55.20
64549;DHT22;49838;51.798;10.954;2022-12-07T10:34:28;13.70;54.10
64549;DHT22;49838;51.798;10.954;2022-12-07T10:39:44;14.10;54.80
64549;DHT22;49838;51.798;10.954;2022-12-07T10:42:15;14.30;54.40
64549;DHT22;49838;51.798;10.954;2022-12-07T10:44:45;14.70;55.80
64549;DHT22;49838;51.798;10.954;2022-12-07T10:47:25;15.10;55.80
64549;DHT22;49838;51.798;10.954;2022-12-07T10:50:14;15.40;54.80
64549;DHT22;49838;51.798;10.954;2022-12-07T10:52:55;15.50;53.90
64549;DHT22;49838;51.798;10.954;2022-12-07T10:55:38;15.40;53.10
64549;DHT22;49838;51.798;10.954;2022-12-07T10:58:20;15.50;53.20
64549;DHT22;49838;51.798;10.954;2022-12-07T11:00:56;15.70;53.20
64549;DHT22;49838;51.798;10.954;2022-12-07T11:03:38;15.80;53.00
64549;DHT22;49838;51.798;10.954;2022-12-07T11:06:16;15.70;52.30
64549;DHT22;49838;51.798;10.954;2022-12-07T11:08:54;15.50;52.00
64549;DHT22;49838;51.798;10.954;2022-12-07T11:11:30;15.50;52.20
64549;DHT22;49838;51.798;10.954;2022-12-07T11:14:03;15.70;52.70
64549;DHT22;49838;51.798;10.954;2022-12-07T11:16:45;16.10;53.10
64549;DHT22;49838;51.798;10.954;2022-12-07T11:19:24;16.60;53.30
64549;DHT22;49838;51.798;10.954;2022-12-07T11:22:02;17.10;52.90
64549;DHT22;49838;51.798;10.954;2022-12-07T11:24:39;17.50;53.20
64549;DHT22;49838;51.798;10.954;2022-12-07T11:27:18;17.80;52.60
64549;DHT22;49838;51.798;10.954;2022-12-07T11:30:02;17.90;51.60
64549;DHT22;49838;51.798;10.954;2022-12-07T11:33:00;17.90;50.60
64549;DHT22;49838;51.798;10.954;2022-12-07T11:35:43;17.70;50.50
64549;DHT22;49838;51.798;10.954;2022-12-07T11:38:19;17.40;49.50
64549;DHT22;49838;51.798;10.954;2022-12-07T11:40:51;17.10;49.30
64549;DHT22;49838;51.798;10.954;2022-12-07T11:43:40;16.70;49.30
64549;DHT22;49838;51.798;10.954;2022-12-07T11:46:19;16.40;49.80
64549;DHT22;49838;51.798;10.954;2022-12-07T11:48:52;16.10;50.10
64549;DHT22;49838;51.798;10.954;2022-12-07T11:51:26;15.90;49.90
64549;DHT22;49838;51.798;10.954;2022-12-07T11:53:58;15.60;50.30
64549;DHT22;49838;51.798;10.954;2022-12-07T11:56:29;15.40;50.80
64549;DHT22;49838;51.798;10.954;2022-12-07T11:59:03;15.30;50.60
64549;DHT22;49838;51.798;10.954;2022-12-07T12:01:42;15.20;51.10
64549;DHT22;49838;51.798;10.954;2022-12-07T12:04:29;15.10;50.70
64549;DHT22;49838;51.798;10.954;2022-12-07T12:07:06;15.00;51.20
64549;DHT22;49838;51.798;10.954;2022-12-07T12:09:35;14.90;51.60
64549;DHT22;49838;51.798;10.954;2022-12-07T12:12:16;14.90;51.20
64549;DHT22;49838;51.798;10.954;2022-12-07T12:15:09;14.70;51.50
64549;DHT22;49838;51.798;10.954;2022-12-07T12:17:49;14.50;51.60
64549;DHT22;49838;51.798;10.954;2022-12-07T12:20:28;14.40;51.90
64549;DHT22;49838;51.798;10.954;2022-12-07T12:23:00;14.30;51.90
64549;DHT22;49838;51.798;10.954;2022-12-07T12:25:35;14.20;51.70
64549;DHT22;49838;51.798;10.954;2022-12-07T12:28:16;14.10;51.70
64549;DHT22;49838;51.798;10.954;2022-12-07T12:31:03;14.00;52.00
64549;DHT22;49838;51.798;10.954;2022-12-07T12:33:36;14.00;52.20
64549;DHT22;49838;51.798;10.954;2022-12-07T12:36:17;13.90;52.10
64549;DHT22;49838;51.798;10.954;2022-12-07T12:38:49;13.80;51.70
64549;DHT22;49838;51.798;10.954;2022-12-07T12:44:40;13.60;51.90
64549;DHT22;49838;51.798;10.954;2022-12-07T12:47:38;13.50;52.00
64549;DHT22;49838;51.798;10.954;2022-12-07T12:50:15;13.50;52.40
64549;DHT22;49838;51.798;10.954;2022-12-07T12:52:46;13.40;51.80
64549;DHT22;49838;51.798;10.954;2022-12-07T12:55:23;13.30;52.10
64549;DHT22;49838;51.798;10.954;2022-12-07T12:58:25;13.30;52.20
64549;DHT22;49838;51.798;10.954;2022-12-07T13:04:16;13.10;51.80
64549;DHT22;49838;51.798;10.954;2022-12-07T13:06:53;12.90;51.60
64549;DHT22;49838;51.798;10.954;2022-12-07T13:09:22;12.80;51.60
64549;DHT22;49838;51.798;10.954;2022-12-07T13:11:57;12.60;51.60
64549;DHT22;49838;51.798;10.954;2022-12-07T13:23:24;12.20;52.10
64549;DHT22;49838;51.798;10.954;2022-12-07T13:26:09;12.20;52.30
64549;DHT22;49838;51.798;10.954;2022-12-07T13:28:43;12.20;52.50
64549;DHT22;49838;51.798;10.954;2022-12-07T13:31:18;12.20;52.40
64549;DHT22;49838;51.798;10.954;2022-12-07T13:33:58;12.10;52.30
64549;DHT22;49838;51.798;10.954;2022-12-07T13:36:27;12.10;52.40
64549;DHT22;49838;51.798;10.954;2022-12-07T13:38:58;12.00;52.40
64549;DHT22;49838;51.798;10.954;2022-12-07T13:41:27;11.90;52.50
64549;DHT22;49838;51.798;10.954;2022-12-07T13:44:01;11.90;52.60
64549;DHT22;49838;51.798;10.954;2022-12-07T13:46:32;11.90;52.80
64549;DHT22;49838;51.798;10.954;2022-12-07T13:49:15;11.80;52.80
64549;DHT22;49838;51.798;10.954;2022-12-07T13:51:45;11.80;52.60
64549;DHT22;49838;51.798;10.954;2022-12-07T13:54:12;11.70;50.50
64549;DHT22;49838;51.798;10.954;2022-12-07T13:56:40;11.50;51.40
64549;DHT22;49838;51.798;10.954;2022-12-07T13:59:12;11.30;51.70
64549;DHT22;49838;51.798;10.954;2022-12-07T14:01:41;11.10;51.70
64549;DHT22;49838;51.798;10.954;2022-12-07T14:04:19;11.00;51.70
64549;DHT22;49838;51.798;10.954;2022-12-07T14:06:56;10.80;51.60
64549;DHT22;49838;51.798;10.954;2022-12-07T14:09:24;10.80;51.80
64549;DHT22;49838;51.798;10.954;2022-12-07T14:11:53;10.70;51.80
64549;DHT22;49838;51.798;10.954;2022-12-07T14:14:24;10.70;52.00
64549;DHT22;49838;51.798;10.954;2022-12-07T14:16:55;10.70;52.10
64549;DHT22;49838;51.798;10.954;2022-12-07T14:19:41;10.70;52.00
64549;DHT22;49838;51.798;10.954;2022-12-07T14:22:18;10.70;52.00
64549;DHT22;49838;51.798;10.954;2022-12-07T14:24:49;10.70;52.20
64549;DHT22;49838;51.798;10.954;2022-12-07T14:27:18;10.70;52.20
64549;DHT22;49838;51.798;10.954;2022-12-07T14:29:48;10.70;52.20
64549;DHT22;49838;51.798;10.954;2022-12-07T14:32:20;10.70;52.30
64549;DHT22;49838;51.798;10.954;2022-12-07T14:34:54;10.70;52.20
64549;DHT22;49838;51.798;10.954;2022-12-07T14:37:23;10.70;52.20
64549;DHT22;49838;51.798;10.954;2022-12-07T14:39:51;10.70;52.20
64549;DHT22;49838;51.798;10.954;2022-12-07T14:42:18;10.60;52.10
64549;DHT22;49838;51.798;10.954;2022-12-07T14:44:48;10.60;52.20
64549;DHT22;49838;51.798;10.954;2022-12-07T14:47:15;10.50;52.30
64549;DHT22;49838;51.798;10.954;2022-12-07T14:49:42;10.50;52.40
64549;DHT22;49838;51.798;10.954;2022-12-07T14:52:12;10.40;52.50
64549;DHT22;49838;51.798;10.954;2022-12-07T14:54:42;10.40;52.60
64549;DHT22;49838;51.798;10.954;2022-12-07T14:57:10;10.40;52.70
64549;DHT22;49838;51.798;10.954;2022-12-07T14:59:37;10.40;52.70
64549;DHT22;49838;51.798;10.954;2022-12-07T15:02:07;10.40;52.60
64549;DHT22;49838;51.798;10.954;2022-12-07T15:04:37;10.40;52.70
64549;DHT22;49838;51.798;10.954;2022-12-07T15:07:05;10.40;52.80
64549;DHT22;49838;51.798;10.954;2022-12-07T15:09:37;10.40;52.80
64549;DHT22;49838;51.798;10.954;2022-12-07T15:12:04;10.40;52.80
64549;DHT22;49838;51.798;10.954;2022-12-07T15:14:32;10.40;52.80
64549;DHT22;49838;51.798;10.954;2022-12-07T15:16:59;10.40;52.80
64549;DHT22;49838;51.798;10.954;2022-12-07T15:19:28;10.30;52.70
64549;DHT22;49838;51.798;10.954;2022-12-07T15:21:56;10.30;52.70
64549;DHT22;49838;51.798;10.954;2022-12-07T15:24:24;10.30;52.70
64549;DHT22;49838;51.798;10.954;2022-12-07T15:26:51;10.30;52.70
64549;DHT22;49838;51.798;10.954;2022-12-07T15:29:21;10.20;52.70
64549;DHT22;49838;51.798;10.954;2022-12-07T15:31:49;10.30;52.70
64549;DHT22;49838;51.798;10.954;2022-12-07T15:34:16;10.20;52.60
64549;DHT22;49838;51.798;10.954;2022-12-07T15:36:45;10.20;52.60
64549;DHT22;49838;51.798;10.954;2022-12-07T15:39:12;10.20;52.60
64549;DHT22;49838;51.798;10.954;2022-12-07T15:41:40;10.20;52.50
64549;DHT22;49838;51.798;10.954;2022-12-07T15:44:08;10.20;52.40
64549;DHT22;49838;51.798;10.954;2022-12-07T15:46:55;10.10;52.50
64549;DHT22;49838;51.798;10.954;2022-12-07T15:49:25;10.10;52.50
64549;DHT22;49838;51.798;10.954;2022-12-07T15:51:55;10.20;52.50
64549;DHT22;49838;51.798;10.954;2022-12-07T15:54:25;10.10;52.40
64549;DHT22;49838;51.798;10.954;2022-12-07T15:56:54;10.10;52.30
64549;DHT22;49838;51.798;10.954;2022-12-07T15:59:23;10.10;52.30
64549;DHT22;49838;51.798;10.954;2022-12-07T16:01:50;10.10;52.00
64549;DHT22;49838;51.798;10.954;2022-12-07T16:04:18;10.10;52.20
64549;DHT22;49838;51.798;10.954;2022-12-07T16:06:45;10.00;52.10
64549;DHT22;49838;51.798;10.954;2022-12-07T16:09:17;10.00;51.90